This is the latest recevied weather packets stored in our database for station/object IU2EVW-13. If no packets are shown the sender has not sent any weather packets the latest 10 day(s).
| Time | Temp. | Humidity | Pressure | Rain* | Wind** | Luminosity | Snow |
|---|---|---|---|---|---|---|---|
| 1787955994 | 18.33° C | 82% | 1016.8 hPa | - | - | - | - |
| 1787954793 | 18.89° C | 78% | 1016.9 hPa | - | - | - | - |
| 1787953592 | 18.33° C | 80% | 1017.2 hPa | - | - | - | - |
| 1787952390 | 18.33° C | 85% | 1017.5 hPa | - | - | - | - |
| 1787951189 | 18.33° C | 78% | 1016.6 hPa | - | - | - | - |
| 1787949988 | 18.89° C | 76% | 1016.1 hPa | - | - | - | - |
| 1787948787 | 19.44° C | 76% | 1016.9 hPa | - | - | - | - |
| 1787947585 | 18.89° C | 77% | 1017 hPa | - | - | - | - |
| 1787946383 | 19.44° C | 74% | 1016.9 hPa | - | - | - | - |
| 1787945182 | 19.44° C | 74% | 1016.7 hPa | - | - | - | - |
| 1787943981 | 19.44° C | 72% | 1017.5 hPa | - | - | - | - |
| 1787942779 | 19.44° C | 72% | 1017.3 hPa | - | - | - | - |
| 1787941578 | 19.44° C | 73% | 1017.8 hPa | - | - | - | - |
| 1787940377 | 19.44° C | 72% | 1017.4 hPa | - | - | - | - |
| 1787939175 | 21.11° C | 60% | 1016.6 hPa | - | - | - | - |
| 1787937974 | 22.22° C | 57% | 1016.6 hPa | - | - | - | - |
| 1787936773 | 22.22° C | 57% | 1017.1 hPa | - | - | - | - |
| 1787935572 | 23.33° C | 56% | 1016.7 hPa | - | - | - | - |
| 1787934370 | 23.89° C | 59% | 1016.9 hPa | - | - | - | - |
| 1787933169 | 25.56° C | 56% | 1015.5 hPa | - | - | - | - |
| 1787931968 | 25.56° C | 61% | 1016.2 hPa | - | - | - | - |
| 1787930767 | 23.33° C | 64% | 1017.2 hPa | - | - | - | - |
| 1787929565 | 26.67° C | 58% | 1017.1 hPa | - | - | - | - |
| 1787928364 | 21.67° C | 71% | 1017.7 hPa | - | - | - | - |
| 1787927163 | 22.22° C | 61% | 1017.3 hPa | - | - | - | - |
* Rain since midnight (hover to see other rain measurements)
** Current wind speed in m/s (hover to see current wind gust speed)